Time;durP1;ratioP1;P1;durP2;ratioP2;P2;SDS_P1;SDS_P2;PMS_P1;PMS_P2;Temp;Humidity;BMP_temperature;BMP_pressure;BME280_temperature;BME280_humidity;BME280_pressure;Samples;Min_cycle;Max_cycle;Signal;HPM_P1;HPM_P2
2021/12/04 00:01:11;;;;;;;21.83;10.70;;;;;;;9.11;69.25;100314.03;5072751;28;20028;-76
2021/12/04 00:03:41;;;;;;;21.05;11.60;;;;;;;9.02;70.12;100313.94;5075696;28;20502;-75
2021/12/04 00:09:06;;;;;;;23.48;12.55;;;;;;;8.79;72.73;100296.13;5030693;28;20039;-78
2021/12/04 00:11:32;;;;;;;22.25;12.82;;;;;;;8.49;73.96;100316.34;5075367;28;20021;-76
2021/12/04 00:13:58;;;;;;;24.33;16.33;;;;;;;8.35;75.00;100340.66;5075840;28;20052;-77
2021/12/04 00:16:23;;;;;;;34.67;17.63;;;;;;;8.38;75.78;100350.31;5074844;28;20060;-77
2021/12/04 00:18:49;;;;;;;36.70;17.55;;;;;;;8.41;77.04;100352.75;5075251;28;20066;-76
2021/12/04 00:21:15;;;;;;;44.58;20.83;;;;;;;8.47;76.75;100349.59;5075129;28;20024;-76
2021/12/04 00:23:40;;;;;;;30.60;17.63;;;;;;;8.59;76.85;100370.91;5074999;28;20078;-77
2021/12/04 00:26:06;;;;;;;26.45;16.30;;;;;;;8.41;76.45;100383.06;5075231;28;20024;-77
2021/12/04 00:28:31;;;;;;;25.83;15.43;;;;;;;8.47;77.72;100387.94;5074969;28;20029;-77
2021/12/04 00:30:58;;;;;;;26.83;16.38;;;;;;;8.47;78.09;100404.00;5075219;28;20025;-76
2021/12/04 00:33:29;;;;;;;30.08;16.45;;;;;;;8.51;77.42;100426.94;5074565;28;20551;-77
2021/12/04 00:36:00;;;;;;;29.98;16.30;;;;;;;8.42;76.64;100443.72;5074896;28;20024;-76
2021/12/04 00:49:09;;;;;;;29.38;16.67;;;;;;;8.25;80.25;100392.34;5075950;28;20035;-77
2021/12/04 00:51:38;;;;;;;23.52;15.32;;;;;;;8.00;80.72;100382.63;5075558;28;20032;-76
2021/12/04 00:54:10;;;;;;;24.42;15.77;;;;;;;7.83;81.25;100369.66;5075432;28;20070;-77
2021/12/04 00:56:38;;;;;;;25.23;16.80;;;;;;;7.77;82.04;100370.94;5074456;28;20430;-77
2021/12/04 00:59:04;;;;;;;29.52;17.23;;;;;;;7.76;83.16;100374.59;5075422;28;20102;-77
2021/12/04 01:01:29;;;;;;;25.48;15.70;;;;;;;7.73;83.48;100360.56;5076722;28;20496;-77
2021/12/04 01:03:55;;;;;;;32.25;16.67;;;;;;;7.75;84.04;100374.69;5077736;28;20024;-79
2021/12/04 01:06:20;;;;;;;27.42;16.77;;;;;;;7.68;83.80;100368.94;5076700;28;20021;-79
2021/12/04 01:08:46;;;;;;;27.83;17.48;;;;;;;7.67;84.29;100343.97;5074861;28;20052;-77
2021/12/04 01:11:11;;;;;;;35.53;16.88;;;;;;;7.59;84.65;100324.97;5074812;28;20016;-77
2021/12/04 01:13:37;;;;;;;28.42;16.17;;;;;;;7.82;85.45;100343.84;5074299;28;20021;-78
2021/12/04 01:16:03;;;;;;;27.67;15.43;;;;;;;7.96;85.95;100344.50;5089980;28;20116;-79
2021/12/04 01:18:28;;;;;;;22.05;13.30;;;;;;;7.78;85.66;100323.59;5074765;28;20475;-78
2021/12/04 01:20:54;;;;;;;22.63;14.57;;;;;;;7.92;85.99;100324.28;5074579;28;20052;-77
2021/12/04 01:23:19;;;;;;;21.80;14.88;;;;;;;7.99;85.94;100324.66;5090223;28;20020;-78
2021/12/04 01:25:45;;;;;;;24.23;14.27;;;;;;;8.10;86.11;100308.66;5074642;28;20021;-78
2021/12/04 01:28:11;;;;;;;25.58;13.80;;;;;;;8.12;85.68;100290.63;5074713;28;20025;-78
2021/12/04 01:30:37;;;;;;;20.38;12.93;;;;;;;8.05;85.69;100300.09;5056922;28;20059;-77
2021/12/04 01:33:03;;;;;;;20.95;13.10;;;;;;;7.96;84.87;100290.09;5075016;28;20052;-78
2021/12/04 01:35:28;;;;;;;26.70;13.68;;;;;;;7.89;85.05;100283.50;5075045;28;20174;-77
2021/12/04 01:37:54;;;;;;;20.17;12.85;;;;;;;7.68;84.88;100284.13;5056759;28;20530;-78
2021/12/04 01:40:20;;;;;;;20.42;13.65;;;;;;;7.75;84.96;100289.03;5074380;28;20023;-77
2021/12/04 01:42:46;;;;;;;21.50;13.38;;;;;;;7.70;85.41;100297.44;5074301;28;20116;-77
2021/12/04 01:45:12;;;;;;;23.67;15.00;;;;;;;7.77;85.75;100311.22;5074593;28;20017;-78
2021/12/04 01:47:38;;;;;;;28.17;14.25;;;;;;;7.77;86.04;100324.59;5074761;28;20024;-79
2021/12/04 01:50:05;;;;;;;19.77;13.48;;;;;;;7.85;86.83;100330.22;5057020;28;20031;-78
2021/12/04 01:52:31;;;;;;;22.05;13.32;;;;;;;7.84;86.37;100336.53;5074137;28;20036;-78
2021/12/04 01:54:59;;;;;;;20.23;12.82;;;;;;;7.80;86.45;100332.41;5073789;28;20024;-79
2021/12/04 01:57:25;;;;;;;20.58;14.05;;;;;;;7.73;85.99;100317.75;5074196;28;20016;-77
2021/12/04 01:59:51;;;;;;;18.75;13.52;;;;;;;7.83;86.29;100313.44;5074252;28;20477;-78
2021/12/04 02:02:16;;;;;;;24.05;14.13;;;;;;;8.03;86.06;100296.69;5074317;28;20027;-78
2021/12/04 02:04:42;;;;;;;17.90;11.55;;;;;;;8.11;84.93;100305.84;5074121;28;20020;-80
2021/12/04 02:07:10;;;;;;;19.88;12.02;;;;;;;8.02;84.57;100316.41;5074386;28;20016;-78
2021/12/04 02:09:37;;;;;;;18.50;11.85;;;;;;;7.90;83.80;100295.91;5074429;28;20539;-78
2021/12/04 02:12:05;;;;;;;15.43;10.80;;;;;;;7.84;83.08;100313.28;5073880;28;20025;-78
2021/12/04 02:14:35;;;;;;;17.75;11.55;;;;;;;7.92;83.71;100340.34;5073466;28;20023;-79
2021/12/04 02:17:02;;;;;;;18.30;10.63;;;;;;;8.02;83.68;100343.19;5073730;28;20044;-79
2021/12/04 02:19:28;;;;;;;21.20;12.73;;;;;;;7.99;83.78;100332.69;5074214;28;20040;-78
2021/12/04 02:21:54;;;;;;;17.63;10.93;;;;;;;8.00;83.39;100324.56;5074273;28;20090;-81
2021/12/04 02:24:23;;;;;;;17.52;11.07;;;;;;;8.14;82.79;100324.34;5073052;28;20028;-78
2021/12/04 02:26:49;;;;;;;18.38;11.32;;;;;;;8.09;82.38;100328.38;5075589;28;20048;-79
2021/12/04 02:29:17;;;;;;;13.50;10.07;;;;;;;8.06;82.84;100304.50;5077282;28;20032;-79
2021/12/04 02:31:51;;;;;;;17.27;10.23;;;;;;;8.12;83.36;100302.22;5078308;28;20033;-79
2021/12/04 02:34:25;;;;;;;13.52;9.93;;;;;;;8.11;83.70;100315.69;5078592;28;20028;-78
2021/12/04 02:36:51;;;;;;;12.48;9.20;;;;;;;8.15;83.39;100301.13;5077456;28;20173;-80
2021/12/04 02:39:27;;;;;;;14.38;9.93;;;;;;;8.26;83.18;100286.88;5073284;28;20029;-79
2021/12/04 02:41:53;;;;;;;11.73;8.18;;;;;;;8.32;83.10;100289.97;5073804;28;20078;-79
2021/12/04 02:44:19;;;;;;;17.63;8.85;;;;;;;8.34;83.33;100268.44;5073810;28;20021;-81
2021/12/04 02:46:45;;;;;;;11.82;7.95;;;;;;;8.27;82.85;100254.63;5073545;28;20104;-80
2021/12/04 02:49:13;;;;;;;10.70;8.35;;;;;;;8.28;82.14;100244.81;5073678;28;20111;-80
2021/12/04 02:51:39;;;;;;;10.23;7.75;;;;;;;8.08;81.41;100230.22;5073300;28;20029;-79
2021/12/04 02:54:05;;;;;;;13.98;8.50;;;;;;;7.91;81.74;100222.66;5073488;28;20486;-79
2021/12/04 02:56:31;;;;;;;12.00;8.50;;;;;;;7.84;82.10;100219.59;5073562;28;20032;-79
2021/12/04 02:59:01;;;;;;;13.75;8.55;;;;;;;7.68;82.45;100200.31;5073390;28;20093;-80
2021/12/04 03:01:27;;;;;;;18.10;8.88;;;;;;;7.63;83.52;100203.34;5074598;28;20104;-79
2021/12/04 03:03:52;;;;;;;12.77;8.32;;;;;;;7.34;84.55;100169.91;5073848;28;20120;-79
2021/12/04 03:06:18;;;;;;;12.18;7.93;;;;;;;7.50;84.40;100191.00;5073069;28;20494;-80
2021/12/04 03:08:44;;;;;;;12.63;7.60;;;;;;;7.55;85.37;100197.72;5073452;28;20020;-80
2021/12/04 03:11:09;;;;;;;12.07;8.52;;;;;;;7.48;86.18;100220.56;5072703;28;20024;-80
2021/12/04 03:13:35;;;;;;;11.40;8.13;;;;;;;7.45;86.30;100247.56;5073444;28;20390;-79
2021/12/04 03:16:00;;;;;;;11.77;8.50;;;;;;;7.43;86.25;100243.28;5073150;28;20397;-80
2021/12/04 03:18:27;;;;;;;10.45;8.05;;;;;;;7.40;86.65;100271.09;5073300;28;20044;-80
2021/12/04 03:20:55;;;;;;;12.35;8.57;;;;;;;7.47;86.45;100285.75;5073173;28;20024;-79
2021/12/04 03:23:32;;;;;;;10.15;7.65;;;;;;;7.53;86.59;100298.66;5072446;28;20025;-79
2021/12/04 03:26:00;;;;;;;13.18;7.80;;;;;;;7.53;87.46;100293.31;5073130;28;20029;-80
2021/12/04 03:28:26;;;;;;;11.18;6.93;;;;;;;7.52;86.79;100318.34;5073204;28;20024;-79
2021/12/04 03:31:03;;;;;;;10.85;6.28;;;;;;;7.67;86.36;100327.91;5072696;28;20064;-80
2021/12/04 03:41:58;;;;;;;9.25;5.22;;;;;;;7.85;85.29;100265.97;5015233;28;20045;-80
2021/12/04 03:44:23;;;;;;;8.25;6.00;;;;;;;7.73;85.93;100261.53;5064387;28;20048;-80
2021/12/04 03:46:50;;;;;;;9.23;5.57;;;;;;;7.72;86.38;100273.19;5077129;28;20087;-81
2021/12/04 03:49:15;;;;;;;6.72;4.70;;;;;;;7.78;87.04;100275.41;5076781;28;20037;-80
2021/12/04 03:51:41;;;;;;;6.15;4.68;;;;;;;7.81;87.04;100294.78;5076238;28;20529;-80
2021/12/04 03:54:06;;;;;;;7.63;4.43;;;;;;;7.88;86.93;100303.22;5058834;28;20070;-80
2021/12/04 03:56:32;;;;;;;7.88;4.20;;;;;;;7.87;86.81;100312.19;5077708;28;20056;-80
2021/12/04 03:58:58;;;;;;;3.85;3.38;;;;;;;7.76;85.79;100320.19;5077195;28;20029;-80
2021/12/04 04:01:24;;;;;;;7.72;4.30;;;;;;;7.87;86.09;100318.41;5081610;28;20031;-80
2021/12/04 04:03:49;;;;;;;5.63;4.20;;;;;;;7.95;86.09;100320.53;5080928;28;20044;-86
2021/12/04 04:06:16;;;;;;;6.50;4.93;;;;;;;8.03;86.13;100328.84;5082213;28;20036;-81
2021/12/04 04:08:41;;;;;;;5.97;4.22;;;;;;;8.02;86.30;100319.06;5076675;28;20504;-79
2021/12/04 04:11:08;;;;;;;5.97;4.05;;;;;;;8.03;85.91;100327.00;5057860;28;20059;-80
2021/12/04 04:13:33;;;;;;;5.72;3.90;;;;;;;7.97;85.50;100315.91;5076241;28;20409;-79
2021/12/04 04:16:00;;;;;;;8.65;4.53;;;;;;;8.03;85.01;100302.91;5075939;28;20060;-79
2021/12/04 04:18:30;;;;;;;5.38;3.47;;;;;;;7.96;84.05;100279.38;5075848;28;20051;-79
2021/12/04 04:20:56;;;;;;;5.38;3.55;;;;;;;7.87;83.51;100274.72;5075779;28;20043;-81
2021/12/04 04:23:21;;;;;;;4.90;3.95;;;;;;;7.82;83.42;100282.25;5076265;28;20115;-80
2021/12/04 04:25:46;;;;;;;4.63;3.67;;;;;;;7.72;82.70;100273.19;5075841;28;20017;-78
2021/12/04 04:28:12;;;;;;;3.67;2.75;;;;;;;7.64;83.32;100242.50;5075414;28;20089;-78
2021/12/04 04:30:38;;;;;;;4.80;3.58;;;;;;;7.41;83.17;100216.63;5075761;28;20107;-79
2021/12/04 04:33:04;;;;;;;4.45;3.22;;;;;;;7.34;83.55;100223.41;5075638;28;20020;-79
2021/12/04 04:35:32;;;;;;;10.45;4.47;;;;;;;7.24;84.03;100202.81;5075464;28;20447;-79
2021/12/04 04:59:45;;;;;;;3.97;3.17;;;;;;;6.98;86.77;100146.78;5076309;28;20039;-79
2021/12/04 05:12:56;;;;;;;8.23;5.07;;;;;;;7.33;87.96;100194.97;5076736;28;20032;-79
2021/12/04 05:15:56;;;;;;;5.35;3.28;;;;;;;7.41;88.14;100203.25;5074710;28;20035;-82
2021/12/04 05:21:06;;;;;;;4.53;3.10;;;;;;;7.47;88.34;100196.59;5075284;28;20035;-82
2021/12/04 05:23:48;;;;;;;3.55;2.95;;;;;;;7.60;88.28;100218.78;5075784;28;20138;-81
2021/12/04 05:26:20;;;;;;;5.53;3.20;;;;;;;7.66;88.01;100207.63;5075099;28;20036;-82
2021/12/04 05:28:47;;;;;;;4.13;3.03;;;;;;;7.70;88.22;100226.97;5075649;28;20517;-84
2021/12/04 05:31:13;;;;;;;5.15;3.20;;;;;;;7.76;87.26;100197.06;5077046;28;20039;-82
2021/12/04 05:33:39;;;;;;;3.88;3.15;;;;;;;7.90;86.96;100223.63;5075300;28;20028;-80
2021/12/04 05:36:05;;;;;;;5.38;3.58;;;;;;;7.95;86.48;100240.19;5057474;28;20047;-78
2021/12/04 05:38:31;;;;;;;4.75;3.50;;;;;;;7.89;86.62;100213.91;5077428;28;20033;-88
2021/12/04 05:40:57;;;;;;;6.18;3.38;;;;;;;8.20;86.77;100251.56;5076103;28;20029;-81
2021/12/04 05:43:24;;;;;;;4.72;3.53;;;;;;;8.22;86.19;100264.84;5074562;28;20029;-80
2021/12/04 05:46:15;;;;;;;11.10;5.00;;;;;;;8.33;86.42;100254.19;5074737;28;20169;-77
2021/12/04 05:54:06;;;;;;;6.97;4.38;;;;;;;8.34;83.85;100273.78;5074832;28;20027;-77
2021/12/04 05:56:30;;;;;;;3.83;2.92;;;;;;;8.41;83.94;100283.06;5073170;28;20123;-76
2021/12/04 05:58:59;;;;;;;4.20;2.60;;;;;;;8.44;83.17;100280.97;5074261;28;20107;-81
2021/12/04 06:01:26;;;;;;;3.75;2.67;;;;;;;8.39;83.30;100272.47;5074335;28;20074;-83
2021/12/04 06:03:51;;;;;;;3.88;2.95;;;;;;;8.49;82.94;100268.09;5074338;28;20100;-76
2021/12/04 06:06:17;;;;;;;14.68;9.75;;;;;;;8.42;83.05;100250.78;5073892;28;20017;-78
2021/12/04 06:08:43;;;;;;;8.07;3.75;;;;;;;8.37;82.42;100262.84;5073780;28;20024;-77
2021/12/04 06:11:09;;;;;;;11.25;3.30;;;;;;;8.07;82.53;100239.25;5073687;28;20086;-80
2021/12/04 06:13:35;;;;;;;3.83;3.22;;;;;;;8.19;82.94;100260.56;5073362;28;20105;-78
2021/12/04 06:16:00;;;;;;;5.03;3.67;;;;;;;8.19;82.81;100259.75;5073248;28;20151;-77
2021/12/04 06:18:26;;;;;;;9.40;3.22;;;;;;;8.22;82.63;100264.84;5074068;28;20115;-78
2021/12/04 06:23:36;;;;;;;3.97;3.28;;;;;;;7.82;81.25;100256.34;5072980;28;20094;-77
2021/12/04 06:26:03;;;;;;;5.07;3.92;;;;;;;7.96;81.42;100280.22;5054062;28;20111;-78
2021/12/04 06:28:29;;;;;;;4.85;3.85;;;;;;;8.05;82.42;100289.38;5072454;28;20028;-78
2021/12/04 06:30:55;;;;;;;6.65;4.70;;;;;;;8.11;82.58;100291.59;5072358;28;20542;-79
2021/12/04 06:33:21;;;;;;;10.05;4.00;;;;;;;8.12;82.67;100290.63;5073116;28;20099;-78
2021/12/04 06:35:48;;;;;;;8.23;4.00;;;;;;;8.09;83.14;100297.09;5072551;28;20020;-77
2021/12/04 06:38:17;;;;;;;6.07;4.30;;;;;;;8.18;83.74;100306.22;5055157;28;20039;-79
2021/12/04 06:40:43;;;;;;;3.17;2.83;;;;;;;8.09;83.75;100296.22;5072972;28;20032;-79
2021/12/04 06:43:09;;;;;;;9.50;3.67;;;;;;;8.03;82.97;100291.34;5073161;28;20111;-79
2021/12/04 06:45:38;;;;;;;8.25;4.80;;;;;;;8.06;82.18;100296.47;5073210;28;20108;-78
2021/12/04 06:48:08;;;;;;;9.38;5.55;;;;;;;7.83;81.95;100295.50;5072552;28;20024;-74
2021/12/04 06:50:40;;;;;;;5.97;4.07;;;;;;;7.98;81.30;100293.53;5072289;28;20482;-77
2021/12/04 06:55:45;;;;;;;8.10;4.57;;;;;;;7.82;80.92;100304.53;5073251;28;20463;-78
2021/12/04 06:58:11;;;;;;;3.63;2.13;;;;;;;7.80;80.23;100292.25;5073401;28;20117;-77
2021/12/04 07:00:37;;;;;;;3.90;2.40;;;;;;;7.59;80.09;100278.63;5083274;28;20051;-78
2021/12/04 07:03:02;;;;;;;5.70;3.42;;;;;;;7.61;81.02;100272.19;5073014;28;20402;-78
2021/12/04 07:05:28;;;;;;;4.53;2.65;;;;;;;7.61;81.11;100282.88;5073086;28;20021;-78
2021/12/04 07:07:53;;;;;;;1.95;1.75;;;;;;;7.53;81.41;100274.59;5072848;28;20029;-79
2021/12/04 07:10:19;;;;;;;2.20;1.60;;;;;;;7.50;81.03;100266.78;5075193;28;20036;-77
2021/12/04 07:12:44;;;;;;;3.78;2.03;;;;;;;7.41;80.73;100248.75;5072979;28;20082;-80
2021/12/04 07:15:11;;;;;;;16.98;6.32;;;;;;;7.58;81.28;100259.03;5073655;28;20024;-78
2021/12/04 07:17:37;;;;;;;2.85;2.05;;;;;;;7.54;81.60;100267.41;5072405;28;20071;-78
2021/12/04 07:20:05;;;;;;;2.55;2.08;;;;;;;7.46;81.17;100270.66;5071827;28;20140;-81
2021/12/04 07:22:30;;;;;;;3.28;2.97;;;;;;;7.30;80.95;100247.84;5069627;28;20024;-78
2021/12/04 07:24:57;;;;;;;2.90;1.88;;;;;;;7.18;81.37;100241.56;5072210;28;20025;-79
2021/12/04 07:27:23;;;;;;;2.63;1.80;;;;;;;7.29;81.60;100251.47;5072334;28;20047;-78
2021/12/04 07:29:49;;;;;;;2.63;2.15;;;;;;;7.39;81.73;100250.69;5072708;28;20100;-77
2021/12/04 07:32:14;;;;;;;3.28;2.10;;;;;;;7.09;81.52;100226.22;5072603;28;20063;-77
2021/12/04 07:34:40;;;;;;;2.00;1.55;;;;;;;7.19;81.65;100234.38;5071740;28;20029;-78
2021/12/04 07:37:05;;;;;;;2.40;1.83;;;;;;;7.25;81.46;100240.13;5071768;28;20051;-76
2021/12/04 07:39:31;;;;;;;2.10;1.80;;;;;;;7.30;81.71;100238.00;5087031;28;20542;-76
2021/12/04 07:41:56;;;;;;;3.42;2.35;;;;;;;7.08;81.96;100224.50;5071772;28;20032;-77
2021/12/04 07:44:22;;;;;;;4.97;1.90;;;;;;;7.22;82.50;100240.34;5073790;28;20028;-77
2021/12/04 07:46:47;;;;;;;6.90;2.10;;;;;;;7.25;82.65;100245.47;5072225;28;20411;-78
2021/12/04 07:49:13;;;;;;;2.90;1.77;;;;;;;7.27;82.28;100240.91;5071975;28;20028;-77
2021/12/04 07:51:38;;;;;;;3.90;2.40;;;;;;;7.36;82.09;100242.03;5071776;28;20488;-77
2021/12/04 07:54:04;;;;;;;4.88;3.33;;;;;;;7.24;80.33;100221.53;5072610;28;20028;-78
2021/12/04 07:56:29;;;;;;;4.10;2.45;;;;;;;7.19;80.03;100235.25;5074265;28;20028;-79
2021/12/04 07:58:55;;;;;;;4.60;2.90;;;;;;;7.15;80.78;100233.78;5071516;28;20055;-78
2021/12/04 08:01:21;;;;;;;4.38;3.30;;;;;;;6.99;81.44;100227.84;5072428;28;20028;-78
2021/12/04 08:03:47;;;;;;;14.98;7.38;;;;;;;6.88;81.32;100215.25;5072222;28;20037;-78
2021/12/04 08:06:12;;;;;;;2.58;2.22;;;;;;;6.69;81.19;100220.22;5071475;28;20442;-77
2021/12/04 08:08:38;;;;;;;4.97;3.25;;;;;;;6.58;82.16;100229.00;5071682;28;20086;-77
2021/12/04 08:11:04;;;;;;;14.07;6.65;;;;;;;6.52;82.68;100242.78;5052724;28;20024;-78
2021/12/04 08:13:30;;;;;;;3.92;2.70;;;;;;;6.52;83.28;100229.44;5070968;28;20052;-77
2021/12/04 08:15:56;;;;;;;3.65;2.90;;;;;;;6.50;84.31;100258.09;5071394;28;20048;-78
2021/12/04 08:18:21;;;;;;;4.35;2.88;;;;;;;6.41;84.51;100248.03;5072132;28;20506;-77
2021/12/04 08:20:47;;;;;;;15.90;4.68;;;;;;;6.40;84.78;100266.84;5071474;28;20024;-78
2021/12/04 08:23:13;;;;;;;6.25;4.22;;;;;;;6.45;85.62;100278.91;5072268;28;20499;-78
2021/12/04 08:25:38;;;;;;;8.32;4.88;;;;;;;6.48;85.81;100272.50;5075298;28;20020;-79
2021/12/04 08:28:04;;;;;;;5.57;3.80;;;;;;;6.68;86.24;100287.97;5075612;28;20028;-78
2021/12/04 08:30:33;;;;;;;8.25;3.60;;;;;;;6.76;86.65;100295.47;5073937;28;20447;-79
2021/12/04 08:32:59;;;;;;;14.02;9.32;;;;;;;6.85;86.72;100286.81;5075319;28;20024;-78
2021/12/04 08:35:28;;;;;;;8.43;5.57;;;;;;;6.97;86.53;100286.75;5075229;28;20024;-79
2021/12/04 08:37:58;;;;;;;11.30;7.15;;;;;;;7.04;86.10;100263.09;5075649;28;20485;-83
2021/12/04 08:40:25;;;;;;;9.45;4.18;;;;;;;7.21;85.41;100265.41;5074688;28;20028;-84
2021/12/04 08:42:51;;;;;;;46.17;25.70;;;;;;;7.07;84.58;100269.09;5074534;28;20196;-82
2021/12/04 08:45:18;;;;;;;15.68;7.00;;;;;;;7.11;84.25;100283.09;5086457;28;20024;-81
2021/12/04 08:47:44;;;;;;;19.67;11.27;;;;;;;6.87;84.11;100236.75;5082921;28;20028;-80
2021/12/04 08:50:17;;;;;;;6.72;4.05;;;;;;;7.15;84.06;100263.19;5060942;28;20457;-83
2021/12/04 08:52:43;;;;;;;8.45;4.20;;;;;;;7.10;83.79;100257.31;5078108;28;20135;-86
2021/12/04 08:55:09;;;;;;;10.05;4.72;;;;;;;7.02;83.89;100238.31;5079214;28;20402;-89
2021/12/04 08:57:35;;;;;;;9.18;4.38;;;;;;;7.14;83.37;100242.75;5077794;28;20024;-83
2021/12/04 09:00:02;;;;;;;18.92;8.43;;;;;;;6.82;82.95;100214.84;5078569;28;20032;-78
2021/12/04 09:02:28;;;;;;;11.40;5.20;;;;;;;6.86;82.87;100200.28;5080110;28;20123;-89
2021/12/04 09:04:56;;;;;;;9.73;3.88;;;;;;;7.18;83.33;100243.38;5076643;28;20059;-86
2021/12/04 09:07:22;;;;;;;4.78;3.67;;;;;;;6.99;82.54;100241.19;5075514;28;20032;-84
2021/12/04 09:09:50;;;;;;;10.07;5.05;;;;;;;6.98;82.83;100212.75;5074571;28;20025;-88
2021/12/04 09:12:16;;;;;;;13.32;4.85;;;;;;;6.81;82.66;100191.75;5074560;28;20391;-86
2021/12/04 09:14:44;;;;;;;6.63;4.32;;;;;;;7.04;83.14;100228.34;5075298;28;20028;-89
2021/12/04 09:17:12;;;;;;;9.82;5.47;;;;;;;7.14;82.67;100218.69;5077398;28;20127;-81
2021/12/04 09:19:38;;;;;;;7.85;4.90;;;;;;;6.72;82.89;100168.38;5077318;28;20067;-86
2021/12/04 09:22:07;;;;;;;4.95;3.47;;;;;;;7.26;82.98;100228.47;5075568;28;20466;-84
2021/12/04 09:24:40;;;;;;;6.88;4.47;;;;;;;7.38;82.53;100229.38;5075239;28;20111;-86
2021/12/04 09:27:18;;;;;;;5.15;4.03;;;;;;;7.38;82.12;100219.53;5098755;28;20048;-93
2021/12/04 09:30:00;;;;;;;8.43;5.57;;;;;;;7.40;82.33;100206.06;5091405;28;20021;-88
2021/12/04 10:33:50;;;;;;;16.65;8.85;;;;;;;7.61;80.12;100161.63;5060587;28;20060;-83
2021/12/04 10:36:26;;;;;;;9.45;6.28;;;;;;;7.99;80.58;100218.41;5054706;28;20048;-85
2021/12/04 10:38:51;;;;;;;14.55;6.95;;;;;;;8.06;80.43;100216.13;5061780;28;20074;-84
2021/12/04 10:41:34;;;;;;;13.82;6.70;;;;;;;8.03;80.06;100211.00;5066712;28;20032;-84
2021/12/04 10:44:21;;;;;;;9.73;5.65;;;;;;;8.01;80.09;100226.34;5066319;28;20095;-84
2021/12/04 10:47:02;;;;;;;12.50;6.30;;;;;;;7.88;80.08;100230.94;5054681;28;20032;-84
2021/12/04 10:52:48;;;;;;;14.88;6.50;;;;;;;7.69;80.17;100215.41;5053966;28;20056;-83
2021/12/04 10:55:24;;;;;;;14.73;9.45;;;;;;;7.71;80.59;100215.28;5052648;28;20036;-84
2021/12/04 11:40:39;;;;;;;12.18;6.45;;;;;;;7.68;79.96;100184.25;5093517;28;20480;-81
2021/12/04 11:43:10;;;;;;;14.30;6.95;;;;;;;7.97;80.24;100232.91;5092920;28;20099;-79
2021/12/04 11:45:49;;;;;;;12.82;7.88;;;;;;;8.01;80.18;100226.34;5092858;28;20174;-81
2021/12/04 11:48:15;;;;;;;10.80;6.90;;;;;;;8.12;80.67;100234.38;5092398;28;20020;-79
2021/12/04 11:50:50;;;;;;;16.48;8.25;;;;;;;8.18;80.86;100220.53;5092529;28;20107;-79
2021/12/04 11:53:17;;;;;;;11.35;6.82;;;;;;;8.08;80.19;100214.16;5092819;28;20028;-79
2021/12/04 11:55:45;;;;;;;14.82;7.03;;;;;;;7.78;80.11;100163.00;5092467;28;20052;-78
2021/12/04 11:58:33;;;;;;;18.60;10.85;;;;;;;8.04;79.87;100202.00;5095142;28;20039;-79
2021/12/04 12:01:03;;;;;;;12.35;7.40;;;;;;;7.83;80.40;100156.31;5096300;28;20016;-79
2021/12/04 12:03:32;;;;;;;11.98;7.13;;;;;;;8.17;80.27;100205.41;5098948;28;20047;-79
2021/12/04 12:06:07;;;;;;;9.25;5.50;;;;;;;8.14;80.20;100186.91;5097461;28;20016;-80
2021/12/04 12:08:33;;;;;;;10.77;6.43;;;;;;;8.17;79.20;100202.72;5098246;28;20031;-81
2021/12/04 12:11:04;;;;;;;12.25;7.57;;;;;;;8.24;80.09;100198.59;5081670;28;20103;-82
2021/12/04 12:13:31;;;;;;;14.90;10.00;;;;;;;8.21;79.82;100194.34;5096187;28;20023;-83
2021/12/04 12:16:19;;;;;;;9.23;5.85;;;;;;;8.31;80.30;100193.66;5095793;28;20035;-82
2021/12/04 12:18:56;;;;;;;11.45;7.00;;;;;;;8.34;80.03;100188.06;5096350;28;20021;-82
2021/12/04 12:21:27;;;;;;;14.27;7.50;;;;;;;8.38;79.89;100198.41;5096421;28;20539;-83
2021/12/04 12:27:40;;;;;;;10.48;5.55;;;;;;;8.25;77.55;100204.81;5056703;28;20071;-82
2021/12/04 12:36:12;;;;;;;8.50;4.95;;;;;;;8.09;78.96;100238.16;5055184;28;20021;-79
2021/12/04 12:38:41;;;;;;;11.02;7.03;;;;;;;8.11;79.10;100238.03;5052619;28;20431;-81
2021/12/04 12:41:10;;;;;;;13.35;5.70;;;;;;;8.05;78.85;100236.69;5055357;28;20040;-79
2021/12/04 12:43:47;;;;;;;15.85;7.47;;;;;;;8.04;78.85;100232.28;5055970;28;20024;-80
2021/12/04 12:46:13;;;;;;;10.63;6.53;;;;;;;8.09;78.50;100239.97;5055929;28;20092;-79
2021/12/04 12:48:49;;;;;;;12.25;6.90;;;;;;;8.04;78.92;100212.72;5038212;28;20025;-79
2021/12/04 12:51:23;;;;;;;12.10;7.20;;;;;;;8.09;78.60;100226.59;5039833;28;20387;-80
2021/12/04 12:53:48;;;;;;;11.35;6.68;;;;;;;8.12;79.51;100223.69;5055484;28;20029;-79
2021/12/04 12:56:15;;;;;;;11.32;7.25;;;;;;;8.13;79.64;100223.53;5055315;28;20017;-78
2021/12/04 12:58:56;;;;;;;12.20;8.20;;;;;;;8.14;79.63;100213.69;5055285;28;20021;-79
2021/12/04 13:12:51;;;;;;;7.90;4.50;;;;;;;7.84;79.38;100210.69;5054664;28;20031;-78
2021/12/04 13:15:39;;;;;;;5.43;3.80;;;;;;;7.82;77.87;100231.41;5054818;28;20441;-78
2021/12/04 13:18:21;;;;;;;4.07;2.72;;;;;;;7.67;78.58;100218.19;5054482;28;20843;-80
2021/12/04 13:20:47;;;;;;;5.83;3.83;;;;;;;7.62;79.17;100215.03;5037079;28;20214;-79
2021/12/04 13:23:16;;;;;;;13.98;4.07;;;;;;;7.54;78.83;100220.09;5054579;28;20029;-79
2021/12/04 13:25:58;;;;;;;7.93;4.65;;;;;;;7.83;80.36;100238.47;5069309;28;20070;-80
2021/12/04 13:28:27;;;;;;;13.73;7.97;;;;;;;7.81;79.68;100238.56;5074481;28;20032;-80
2021/12/04 13:30:54;;;;;;;8.50;5.38;;;;;;;7.89;79.37;100238.81;5074137;28;20130;-81
2021/12/04 13:33:20;;;;;;;14.95;8.60;;;;;;;7.84;80.26;100232.13;5075588;28;20107;-80
2021/12/04 13:35:46;;;;;;;12.77;5.85;;;;;;;7.82;81.23;100231.41;5074108;28;20103;-80
2021/12/04 13:38:14;;;;;;;9.13;6.22;;;;;;;7.78;80.36;100251.31;5074358;28;20078;-79
2021/12/04 13:40:41;;;;;;;12.75;8.00;;;;;;;7.77;79.33;100241.59;5075715;28;20039;-79
2021/12/04 13:43:11;;;;;;;12.02;5.95;;;;;;;7.77;79.36;100247.78;5075469;28;20033;-80
2021/12/04 13:45:37;;;;;;;9.50;5.95;;;;;;;7.86;78.89;100262.31;5074852;28;20028;-80
2021/12/04 13:48:03;;;;;;;18.33;8.38;;;;;;;7.75;78.70;100238.19;5074139;28;20027;-78
2021/12/04 13:53:06;;;;;;;16.10;10.00;;;;;;;8.06;78.89;100291.09;5073913;28;20486;-79
2021/12/04 13:55:38;;;;;;;16.30;9.32;;;;;;;7.99;78.85;100290.72;5057264;28;20375;-78
2021/12/04 13:58:04;;;;;;;11.27;6.75;;;;;;;7.92;78.97;100294.81;5073750;28;20164;-79
2021/12/04 14:00:30;;;;;;;9.55;7.28;;;;;;;7.67;78.77;100282.41;5073186;28;20519;-80
2021/12/04 14:02:55;;;;;;;10.98;7.63;;;;;;;7.75;79.12;100305.94;5073386;28;20032;-80
2021/12/04 14:05:23;;;;;;;15.80;8.20;;;;;;;7.52;79.62;100291.59;5073506;28;20125;-79
2021/12/04 14:07:58;;;;;;;11.48;7.28;;;;;;;7.46;80.08;100318.81;5073468;28;20040;-82
2021/12/04 14:10:30;;;;;;;22.05;10.93;;;;;;;7.33;80.67;100307.31;5073766;28;20462;-81
2021/12/04 14:12:57;;;;;;;34.63;11.75;;;;;;;7.29;80.90;100324.53;5073482;28;20036;-80
2021/12/04 14:15:25;;;;;;;21.02;11.88;;;;;;;7.26;81.68;100319.41;5073553;28;20035;-79
2021/12/04 14:18:02;;;;;;;16.05;10.93;;;;;;;7.09;81.76;100304.56;5073027;28;20405;-78
2021/12/04 14:20:29;;;;;;;17.23;10.10;;;;;;;7.06;81.64;100330.72;5073114;28;20028;-77
2021/12/04 14:22:55;;;;;;;28.48;12.23;;;;;;;6.98;81.31;100338.41;5073619;28;20472;-81
2021/12/04 14:25:24;;;;;;;20.25;12.90;;;;;;;6.96;82.13;100353.72;5073612;28;20451;-80
2021/12/04 14:27:51;;;;;;;32.60;20.50;;;;;;;6.89;81.90;100349.75;5073571;28;20105;-80
2021/12/04 14:30:27;;;;;;;17.02;10.90;;;;;;;6.86;81.95;100363.34;5073867;28;20020;-80
2021/12/04 14:32:56;;;;;;;19.88;11.13;;;;;;;6.52;81.75;100314.06;5073580;28;20370;-80
2021/12/04 14:35:32;;;;;;;25.50;15.82;;;;;;;6.84;81.78;100358.09;5073309;28;20372;-80
2021/12/04 14:38:01;;;;;;;22.75;14.13;;;;;;;6.76;81.29;100359.63;5073982;28;20086;-80
2021/12/04 14:40:35;;;;;;;21.52;13.50;;;;;;;6.72;81.11;100369.66;5075148;28;20029;-80
2021/12/04 14:43:03;;;;;;;20.10;12.57;;;;;;;6.63;80.66;100361.41;5080194;28;20031;-81
2021/12/04 14:45:33;;;;;;;18.13;11.85;;;;;;;6.60;80.31;100364.31;5074335;28;20081;-80
2021/12/04 14:48:34;;;;;;;20.63;13.32;;;;;;;6.52;80.27;100376.38;5070510;28;20044;-78
2021/12/04 14:51:05;;;;;;;23.85;14.82;;;;;;;6.51;81.22;100373.81;5029316;28;20074;-78